createdAt,value
2022-10-18T00:01:06.111Z,99056.91
2022-10-18T00:03:34.869Z,99051.66
2022-10-18T00:06:04.602Z,99051.38
2022-10-18T00:08:33.202Z,99041.22
2022-10-18T00:11:02.172Z,99034.78
2022-10-18T00:13:30.592Z,99033.22
2022-10-18T00:16:00.897Z,99035.47
2022-10-18T00:18:29.447Z,99024.03
2022-10-18T00:21:06.606Z,99031.47
2022-10-18T00:23:35.210Z,99030.72
2022-10-18T00:26:05.780Z,99026.94
2022-10-18T00:28:34.926Z,99028.94
2022-10-18T00:31:17.906Z,99012.25
2022-10-18T00:33:48.143Z,99013.47
2022-10-18T00:36:16.526Z,99013.75
2022-10-18T00:38:44.955Z,99018.22
2022-10-18T00:41:16.348Z,99009.22
2022-10-18T00:43:57.817Z,99001.91
2022-10-18T00:46:28.784Z,99000.88
2022-10-18T00:48:58.687Z,99003.16
2022-10-18T00:51:47.505Z,98996.94
2022-10-18T00:54:16.182Z,99008.69
2022-10-18T00:56:45.233Z,98999.38
2022-10-18T00:59:18.515Z,98999.47
2022-10-18T01:01:47.201Z,99000.59
2022-10-18T01:04:16.146Z,99001.44
2022-10-18T01:07:07.675Z,99000.44
2022-10-18T01:09:55.435Z,99000.97
2022-10-18T01:12:46.035Z,98999.28
2022-10-18T01:15:24.804Z,98996.13
2022-10-18T01:18:28.433Z,99001.63
2022-10-18T01:21:18.466Z,98988.94
2022-10-18T01:24:09.385Z,98982.78
2022-10-18T01:27:05.695Z,98988.19
2022-10-18T01:29:58.538Z,98984.28
2022-10-18T01:32:39.358Z,98981.56
2022-10-18T01:35:11.495Z,98986.38
2022-10-18T01:37:40.045Z,98980.91
2022-10-18T01:40:09.078Z,98974.59
2022-10-18T01:42:38.010Z,98976.34
2022-10-18T01:45:08.180Z,98968.38
2022-10-18T01:47:36.546Z,98971.41
2022-10-18T01:50:07.098Z,98967.53
2022-10-18T01:52:35.557Z,98965.94
2022-10-18T01:55:04.044Z,98958.88
2022-10-18T01:57:41.186Z,98964.72
2022-10-18T02:00:38.427Z,98961.22
2022-10-18T02:03:19.149Z,98955.56
2022-10-18T02:06:01.207Z,98960.00
2022-10-18T02:08:35.078Z,98962.06
2022-10-18T02:11:08.286Z,98958.59
2022-10-18T02:13:41.220Z,98956.47
2022-10-18T02:16:22.390Z,98956.56
2022-10-18T02:18:59.357Z,98959.81
2022-10-18T02:21:28.580Z,98963.34
2022-10-18T02:23:56.941Z,98963.88
2022-10-18T02:26:25.210Z,98960.00
2022-10-18T02:28:53.589Z,98967.91
2022-10-18T02:31:27.431Z,98966.69
2022-10-18T02:34:25.990Z,98967.91
2022-10-18T02:36:55.582Z,98965.47
2022-10-18T02:39:44.590Z,98968.81
2022-10-18T02:42:13.511Z,98963.28
2022-10-18T02:44:41.948Z,98960.91
2022-10-18T02:47:11.378Z,98957.91
2022-10-18T02:49:39.809Z,98961.38
2022-10-18T02:52:08.137Z,98968.09
2022-10-18T02:54:36.549Z,98970.81
2022-10-18T02:57:04.900Z,98959.31
2022-10-18T02:59:33.818Z,98962.72
2022-10-18T03:02:02.123Z,98954.75
2022-10-18T03:04:30.929Z,98958.19
2022-10-18T03:06:59.223Z,98962.22
2022-10-18T03:09:27.572Z,98953.28
2022-10-18T03:11:55.857Z,98954.34
2022-10-18T03:14:24.702Z,98958.50
2022-10-18T03:16:53.047Z,98963.34
2022-10-18T03:19:21.428Z,98951.13
2022-10-18T03:21:50.199Z,98957.56
2022-10-18T03:24:19.144Z,98965.03
2022-10-18T03:26:48.292Z,98960.66
2022-10-18T03:29:17.228Z,98962.66
2022-10-18T03:31:45.573Z,98954.19
2022-10-18T03:34:14.557Z,98961.41
2022-10-18T03:36:42.854Z,98956.22
2022-10-18T03:39:11.763Z,98968.91
2022-10-18T03:41:40.143Z,98960.56
2022-10-18T03:44:08.601Z,98966.28
2022-10-18T03:46:36.982Z,98967.06
2022-10-18T03:49:05.310Z,98967.50
2022-10-18T03:51:34.566Z,98968.06
2022-10-18T03:54:03.229Z,98965.97
2022-10-18T03:56:31.819Z,98958.09
2022-10-18T03:59:00.872Z,98969.28
2022-10-18T04:01:31.273Z,98959.88
2022-10-18T04:03:59.978Z,98969.13
2022-10-18T04:06:28.564Z,98971.75
2022-10-18T04:08:57.526Z,98957.69
2022-10-18T04:11:25.856Z,98964.69
2022-10-18T04:13:54.188Z,98962.66
2022-10-18T04:16:22.525Z,98952.34
2022-10-18T04:18:50.839Z,98955.03
2022-10-18T04:21:19.158Z,98953.28
2022-10-18T04:23:49.132Z,98951.81
2022-10-18T04:26:17.743Z,98944.16
2022-10-18T04:28:46.936Z,98958.94
2022-10-18T04:31:15.422Z,98954.91
2022-10-18T04:33:43.852Z,98954.63
2022-10-18T04:36:12.196Z,98941.06
2022-10-18T04:38:40.781Z,98945.13
2022-10-18T04:41:09.538Z,98945.06
2022-10-18T04:43:37.993Z,98939.56
2022-10-18T04:46:06.505Z,98938.38
2022-10-18T04:48:34.952Z,98944.81
2022-10-18T04:51:04.052Z,98942.16
2022-10-18T04:53:33.026Z,98946.97
2022-10-18T04:56:01.575Z,98949.00
2022-10-18T04:58:29.983Z,98942.00
2022-10-18T05:00:58.444Z,98946.91
2022-10-18T05:03:26.747Z,98955.09
2022-10-18T05:06:01.732Z,98953.16
2022-10-18T05:08:32.992Z,98951.94
2022-10-18T05:11:01.549Z,98956.91
2022-10-18T05:13:30.421Z,98955.81
2022-10-18T05:16:00.534Z,98949.81
2022-10-18T05:18:29.068Z,98948.31
2022-10-18T05:20:57.713Z,98942.81
2022-10-18T05:23:26.358Z,98949.94
2022-10-18T05:25:54.884Z,98948.59
2022-10-18T05:28:41.336Z,98949.16
2022-10-18T05:31:10.919Z,98949.41
2022-10-18T05:33:40.039Z,98939.22
2022-10-18T05:36:09.029Z,98942.53
2022-10-18T05:38:44.446Z,98944.78
2022-10-18T05:41:13.067Z,98936.75
2022-10-18T05:43:41.756Z,98947.19
2022-10-18T05:46:15.150Z,98956.31
2022-10-18T05:48:44.950Z,98956.31
2022-10-18T05:51:13.450Z,98952.06
2022-10-18T05:53:42.501Z,98944.25
2022-10-18T05:56:12.487Z,98946.16
2022-10-18T05:58:41.972Z,98937.59
2022-10-18T06:01:11.375Z,98949.97
2022-10-18T06:03:39.954Z,98937.44
2022-10-18T06:06:11.137Z,98940.28
2022-10-18T06:08:40.218Z,98931.75
2022-10-18T06:11:15.537Z,98945.09
2022-10-18T06:13:44.889Z,98930.41
2022-10-18T06:16:15.581Z,98934.25
2022-10-18T06:18:43.996Z,98931.19
2022-10-18T06:21:13.157Z,98922.50
2022-10-18T06:23:41.611Z,98921.09
2022-10-18T06:26:11.522Z,98930.44
2022-10-18T06:28:39.961Z,98923.16
2022-10-18T06:31:08.500Z,98923.16
2022-10-18T06:33:37.608Z,98925.28
2022-10-18T06:36:12.977Z,98912.00
2022-10-18T06:38:42.098Z,98908.53
2022-10-18T06:41:10.739Z,98908.41
2022-10-18T06:43:39.169Z,98904.72
2022-10-18T06:46:08.816Z,98907.09
2022-10-18T06:48:37.513Z,98910.59
2022-10-18T06:51:06.642Z,98901.88
2022-10-18T06:53:44.254Z,98898.28
2022-10-18T06:56:17.716Z,98905.25
2022-10-18T06:58:46.142Z,98892.63
2022-10-18T07:01:16.490Z,98902.66
2022-10-18T07:03:45.682Z,98898.16
2022-10-18T07:06:15.321Z,98900.31
2022-10-18T07:08:43.891Z,98897.19
2022-10-18T07:11:17.316Z,98899.56
2022-10-18T07:13:45.721Z,98895.69
2022-10-18T07:16:18.304Z,98900.06
2022-10-18T07:18:51.810Z,98891.31
2022-10-18T07:21:22.938Z,98897.19
2022-10-18T07:23:51.860Z,98891.91
2022-10-18T07:26:22.472Z,98888.34
2022-10-18T07:28:56.169Z,98888.22
2022-10-18T07:31:24.582Z,98885.97
2022-10-18T07:33:52.906Z,98869.16
2022-10-18T07:36:22.421Z,98873.63
2022-10-18T07:38:52.265Z,98868.63
2022-10-18T07:41:21.372Z,98870.72
2022-10-18T07:43:53.835Z,98869.00
2022-10-18T07:46:22.467Z,98865.81
2022-10-18T07:48:51.008Z,98865.28
2022-10-18T07:51:20.323Z,98855.31
2022-10-18T07:53:49.253Z,98857.91
2022-10-18T07:56:21.426Z,98851.34
2022-10-18T07:58:53.567Z,98855.09
2022-10-18T08:01:23.400Z,98851.34
2022-10-18T08:03:52.918Z,98848.50
2022-10-18T08:06:21.898Z,98845.06
2022-10-18T08:08:50.271Z,98841.66
2022-10-18T08:11:21.121Z,98836.31
2022-10-18T08:13:50.116Z,98832.97
2022-10-18T08:16:20.795Z,98828.72
2022-10-18T08:18:49.553Z,98822.00
2022-10-18T08:21:18.714Z,98820.25
2022-10-18T08:23:47.773Z,98817.31
2022-10-18T08:26:20.742Z,98823.69
2022-10-18T08:28:58.457Z,98816.78
2022-10-18T08:31:32.179Z,98811.78
2022-10-18T08:34:01.278Z,98809.28
2022-10-18T08:36:30.904Z,98805.59
2022-10-18T08:38:59.456Z,98796.09
2022-10-18T08:41:34.902Z,98792.25
2022-10-18T08:44:24.500Z,98786.22
2022-10-18T08:46:56.192Z,98793.44
2022-10-18T08:49:33.207Z,98789.28
2022-10-18T08:52:02.228Z,98781.88
2022-10-18T08:55:05.493Z,98777.81
2022-10-18T08:57:34.564Z,98784.97
2022-10-18T09:00:16.454Z,98789.34
2022-10-18T09:02:51.725Z,98778.28
2022-10-18T09:05:36.397Z,98778.22
2022-10-18T09:08:27.568Z,98777.03
2022-10-18T09:11:25.206Z,98775.91
2022-10-18T09:14:16.122Z,98778.28
2022-10-18T09:16:59.791Z,98768.00
2022-10-18T09:20:07.215Z,98754.38
2022-10-18T09:22:44.441Z,98753.06
2022-10-18T09:25:34.318Z,98756.22
2022-10-18T09:28:16.768Z,98757.59
2022-10-18T09:31:05.378Z,98758.38
2022-10-18T09:33:53.533Z,98752.44
2022-10-18T09:36:31.987Z,98744.28
2022-10-18T09:39:22.449Z,98747.50
2022-10-18T09:42:06.775Z,98733.28
2022-10-18T09:44:42.381Z,98735.63
2022-10-18T09:47:26.962Z,98729.13
2022-10-18T09:50:00.876Z,98721.63
2022-10-18T09:52:37.595Z,98721.00
2022-10-18T09:55:10.198Z,98718.28
2022-10-18T09:57:51.167Z,98700.19
2022-10-18T10:00:24.647Z,98699.34
2022-10-18T10:02:55.383Z,98693.88
2022-10-18T10:05:24.061Z,98692.28
2022-10-18T10:08:01.089Z,98687.59
2022-10-18T10:10:30.957Z,98671.38
2022-10-18T10:13:07.666Z,98671.50
2022-10-18T10:15:38.196Z,98668.91
2022-10-18T10:18:22.098Z,98664.13
2022-10-18T10:20:57.802Z,98654.16
2022-10-18T10:24:05.703Z,98645.56
2022-10-18T10:26:38.465Z,98644.84
2022-10-18T10:29:45.291Z,98645.94
2022-10-18T10:32:14.913Z,98632.31
2022-10-18T10:34:44.838Z,98626.31
2022-10-18T10:37:27.955Z,98626.88
2022-10-18T10:40:17.744Z,98620.22
2022-10-18T10:43:04.353Z,98608.81
2022-10-18T10:45:56.157Z,98607.50
2022-10-18T10:48:27.787Z,98599.69
2022-10-18T10:51:10.196Z,98606.06
2022-10-18T10:53:42.656Z,98595.66
2022-10-18T10:56:22.324Z,98589.47
2022-10-18T10:58:51.789Z,98579.81
2022-10-18T11:01:33.456Z,98574.06
2022-10-18T11:04:04.446Z,98583.41
2022-10-18T11:07:07.576Z,98571.69
2022-10-18T11:09:57.192Z,98571.66
2022-10-18T11:12:46.032Z,98556.25
2022-10-18T11:15:48.091Z,98554.47
2022-10-18T11:18:21.429Z,98549.94
2022-10-18T11:21:12.188Z,98543.97
2022-10-18T11:23:42.003Z,98540.97
2022-10-18T11:26:14.024Z,98544.59
2022-10-18T11:29:10.780Z,98528.75
2022-10-18T11:32:01.587Z,98519.63
2022-10-18T11:34:42.794Z,98516.41
2022-10-18T11:37:40.058Z,98510.13
2022-10-18T11:40:31.631Z,98504.53
2022-10-18T11:43:17.617Z,98501.25
2022-10-18T11:45:58.110Z,98495.44
2022-10-18T11:48:35.589Z,98493.00
2022-10-18T11:51:34.016Z,98482.91
2022-10-18T11:54:34.419Z,98481.16
2022-10-18T11:57:25.913Z,98472.34
2022-10-18T12:00:13.103Z,98465.06
2022-10-18T12:03:15.114Z,98471.50
2022-10-18T12:05:44.878Z,98457.69
2022-10-18T12:08:19.017Z,98447.00
2022-10-18T12:11:06.910Z,98447.94
2022-10-18T12:13:43.851Z,98441.44
2022-10-18T12:16:12.653Z,98434.94
2022-10-18T12:18:55.167Z,98431.81
2022-10-18T12:21:25.824Z,98429.53
2022-10-18T12:24:28.652Z,98435.97
2022-10-18T12:27:01.242Z,98429.09
2022-10-18T12:29:29.582Z,98424.34
2022-10-18T12:31:59.866Z,98423.28
2022-10-18T12:34:39.433Z,98422.22
2022-10-18T12:37:07.731Z,98424.53
2022-10-18T12:40:05.515Z,98414.97
2022-10-18T12:42:35.034Z,98427.84
2022-10-18T12:45:27.427Z,98410.91
2022-10-18T12:48:00.390Z,98411.47
2022-10-18T12:50:32.332Z,98409.59
2022-10-18T12:53:20.799Z,98408.97
2022-10-18T12:55:51.797Z,98399.75
2022-10-18T12:58:23.699Z,98393.91
2022-10-18T13:00:56.440Z,98386.50
2022-10-18T13:03:25.476Z,98390.84
2022-10-18T13:06:02.985Z,98395.59
2022-10-18T13:08:42.423Z,98388.31
2022-10-18T13:11:10.672Z,98383.19
2022-10-18T13:14:13.123Z,98370.97
2022-10-18T13:17:01.533Z,98374.13
2022-10-18T13:20:07.614Z,98381.00
2022-10-18T13:23:07.891Z,98371.69
2022-10-18T13:25:59.394Z,98377.00
2022-10-18T13:28:27.956Z,98366.69
2022-10-18T13:31:02.244Z,98361.47
2022-10-18T13:33:42.005Z,98365.81
2022-10-18T13:36:22.996Z,98365.00
2022-10-18T13:38:58.540Z,98360.81
2022-10-18T13:41:34.490Z,98352.38
2022-10-18T13:44:41.038Z,98345.50
2022-10-18T13:47:15.902Z,98349.16
2022-10-18T13:49:44.148Z,98349.22
2022-10-18T13:52:29.826Z,98348.28
2022-10-18T13:55:23.837Z,98334.50
2022-10-18T13:58:10.367Z,98338.53
2022-10-18T14:01:14.278Z,98336.56
2022-10-18T14:04:01.579Z,98324.13
2022-10-18T14:06:34.939Z,98321.63
2022-10-18T14:09:25.571Z,98327.72
2022-10-18T14:12:09.185Z,98331.59
2022-10-18T14:14:51.148Z,98338.75
2022-10-18T14:17:34.749Z,98338.25
2022-10-18T14:20:28.587Z,98322.94
2022-10-18T14:23:17.318Z,98323.13
2022-10-18T14:25:45.758Z,98324.78
2022-10-18T14:28:31.313Z,98321.63
2022-10-18T14:31:09.540Z,98328.22
2022-10-18T14:33:42.271Z,98318.03
2022-10-18T14:36:20.677Z,98319.03
2022-10-18T14:38:57.886Z,98316.97
2022-10-18T14:41:33.549Z,98317.88
2022-10-18T14:44:22.722Z,98311.94
2022-10-18T14:46:59.843Z,98316.97
2022-10-18T14:49:28.574Z,98314.34
2022-10-18T14:52:01.017Z,98306.16
2022-10-18T14:54:35.545Z,98306.06
2022-10-18T14:57:05.417Z,98304.78
2022-10-18T14:59:52.150Z,98304.78
2022-10-18T15:02:25.367Z,98305.66
2022-10-18T15:05:06.660Z,98302.53
2022-10-18T15:07:35.332Z,98295.63
2022-10-18T15:10:04.730Z,98303.00
2022-10-18T15:12:36.868Z,98299.81
2022-10-18T15:15:19.103Z,98295.28
2022-10-18T15:17:49.188Z,98295.38
2022-10-18T15:20:20.961Z,98290.13
2022-10-18T15:22:49.663Z,98290.25
2022-10-18T15:25:22.531Z,98281.59
2022-10-18T15:27:59.055Z,98292.09
2022-10-18T15:30:38.367Z,98290.53
2022-10-18T15:33:12.571Z,98287.66
2022-10-18T15:35:41.093Z,98292.59
2022-10-18T15:38:31.366Z,98290.44
2022-10-18T15:41:00.027Z,98290.34
2022-10-18T15:43:29.221Z,98289.50
2022-10-18T15:46:06.795Z,98287.53
2022-10-18T15:48:40.576Z,98287.69
2022-10-18T15:51:47.097Z,98292.94
2022-10-18T15:54:19.373Z,98297.00
2022-10-18T15:56:47.931Z,98292.16
2022-10-18T15:59:28.261Z,98301.84
2022-10-18T16:01:59.005Z,98301.88
2022-10-18T16:04:29.699Z,98300.13
2022-10-18T16:07:03.352Z,98307.44
2022-10-18T16:09:32.487Z,98311.66
2022-10-18T16:12:01.608Z,98318.78
2022-10-18T16:14:30.733Z,98311.88
2022-10-18T16:17:03.449Z,98309.75
2022-10-18T16:19:33.391Z,98318.06
2022-10-18T16:22:06.722Z,98316.84
2022-10-18T16:24:35.629Z,98320.88
2022-10-18T16:27:05.175Z,98322.53
2022-10-18T16:29:35.120Z,98322.78
2022-10-18T16:32:04.107Z,98316.81
2022-10-18T16:34:38.339Z,98321.22
2022-10-18T16:37:10.188Z,98318.09
2022-10-18T16:39:45.438Z,98313.94
2022-10-18T16:42:18.294Z,98309.47
2022-10-18T16:44:49.316Z,98315.28
2022-10-18T16:47:19.983Z,98318.25
2022-10-18T16:49:52.560Z,98319.75
2022-10-18T16:52:24.718Z,98310.25
2022-10-18T16:54:55.627Z,98316.91
2022-10-18T16:57:26.283Z,98316.66
2022-10-18T16:59:54.952Z,98317.56
2022-10-18T17:02:23.459Z,98312.63
2022-10-18T17:04:53.512Z,98306.19
2022-10-18T17:07:23.921Z,98317.50
2022-10-18T17:09:53.002Z,98316.78
2022-10-18T17:12:21.619Z,98311.44
2022-10-18T17:14:53.556Z,98317.25
2022-10-18T17:17:23.956Z,98323.16
2022-10-18T17:19:52.826Z,98314.22
2022-10-18T17:22:21.501Z,98310.34
2022-10-18T17:24:51.477Z,98313.31
2022-10-18T17:27:22.712Z,98307.59
2022-10-18T17:29:53.607Z,98311.44
2022-10-18T17:32:24.426Z,98314.00
2022-10-18T17:34:57.639Z,98304.75
2022-10-18T17:37:48.141Z,98310.72
2022-10-18T17:40:30.719Z,98316.13
2022-10-18T17:43:14.031Z,98308.81
2022-10-18T17:46:06.396Z,98314.00
2022-10-18T17:48:37.034Z,98303.75
2022-10-18T17:51:19.513Z,98306.78
2022-10-18T17:54:05.857Z,98309.69
2022-10-18T17:56:53.882Z,98312.59
2022-10-18T17:59:31.595Z,98311.44
2022-10-18T18:02:00.230Z,98314.03
2022-10-18T18:04:30.871Z,98314.72
2022-10-18T18:07:15.561Z,98312.13
2022-10-18T18:09:45.259Z,98297.78
2022-10-18T18:12:13.965Z,98307.56
2022-10-18T18:14:43.919Z,98317.72
2022-10-18T18:17:34.033Z,98305.38
2022-10-18T18:20:15.349Z,98298.56
2022-10-18T18:22:54.096Z,98303.63
2022-10-18T18:25:50.789Z,98301.59
2022-10-18T18:28:24.974Z,98300.66
2022-10-18T18:30:56.691Z,98288.75
2022-10-18T18:33:29.936Z,98283.22
2022-10-18T18:36:06.509Z,98283.22
2022-10-18T18:38:37.762Z,98282.00
2022-10-18T18:41:14.204Z,98275.81
2022-10-18T18:43:46.134Z,98281.88
2022-10-18T18:46:16.253Z,98276.25
2022-10-18T18:48:45.940Z,98275.88
2022-10-18T18:51:19.949Z,98275.09
2022-10-18T18:53:56.395Z,98264.91
2022-10-18T18:56:26.047Z,98267.72
2022-10-18T18:59:04.090Z,98275.53
2022-10-18T19:01:38.753Z,98278.50
2022-10-18T19:04:08.078Z,98271.84
2022-10-18T19:06:52.973Z,98270.47
2022-10-18T19:09:27.974Z,98272.16
2022-10-18T19:12:09.222Z,98264.81
2022-10-18T19:14:38.463Z,98263.25
2022-10-18T19:17:11.225Z,98271.38
2022-10-18T19:19:44.990Z,98265.88
2022-10-18T19:22:15.339Z,98268.28
2022-10-18T19:24:43.744Z,98265.38
2022-10-18T19:27:13.744Z,98258.31
2022-10-18T19:29:42.557Z,98256.66
2022-10-18T19:32:13.305Z,98254.66
2022-10-18T19:34:43.813Z,98257.78
2022-10-18T19:37:15.584Z,98254.19
2022-10-18T19:39:44.071Z,98250.75
2022-10-18T19:42:15.999Z,98252.41
2022-10-18T19:44:47.258Z,98244.56
2022-10-18T19:47:16.363Z,98248.13
2022-10-18T19:49:47.844Z,98248.66
2022-10-18T19:52:16.329Z,98238.84
2022-10-18T19:54:45.485Z,98236.22
2022-10-18T19:57:15.604Z,98231.41
2022-10-18T19:59:44.297Z,98240.19
2022-10-18T20:02:15.398Z,98228.28
2022-10-18T20:04:43.991Z,98221.16
2022-10-18T20:07:12.522Z,98224.13
2022-10-18T20:09:41.058Z,98222.22
2022-10-18T20:12:09.545Z,98219.38
2022-10-18T20:14:38.215Z,98216.88
2022-10-18T20:17:13.491Z,98217.63
2022-10-18T20:19:41.953Z,98217.75
2022-10-18T20:22:12.055Z,98218.13
2022-10-18T20:24:40.479Z,98215.63
2022-10-18T20:27:09.191Z,98212.97
2022-10-18T20:29:37.730Z,98210.91
2022-10-18T20:32:06.968Z,98202.59
2022-10-18T20:34:35.557Z,98200.53
2022-10-18T20:37:04.588Z,98205.56
2022-10-18T20:39:34.647Z,98202.47
2022-10-18T20:42:03.186Z,98206.53
2022-10-18T20:44:34.052Z,98196.97
2022-10-18T20:47:03.763Z,98205.19
2022-10-18T20:49:34.085Z,98198.00
2022-10-18T20:52:02.384Z,98196.03
2022-10-18T20:54:30.773Z,98195.56
2022-10-18T20:56:59.141Z,98202.66
2022-10-18T20:59:27.543Z,98193.47
2022-10-18T21:01:55.885Z,98186.03
2022-10-18T21:04:24.313Z,98190.06
2022-10-18T21:06:52.762Z,98178.38
2022-10-18T21:09:21.208Z,98178.34
2022-10-18T21:11:51.322Z,98181.06
2022-10-18T21:14:20.947Z,98171.44
2022-10-18T21:16:49.953Z,98171.34
2022-10-18T21:19:20.493Z,98167.75
2022-10-18T21:21:50.875Z,98164.97
2022-10-18T21:24:19.890Z,98167.97
2022-10-18T21:26:49.132Z,98167.50
2022-10-18T21:29:22.000Z,98168.28
2022-10-18T21:31:54.324Z,98163.06
2022-10-18T21:34:22.936Z,98158.59
2022-10-18T21:36:51.745Z,98153.75
2022-10-18T21:41:57.230Z,98134.13
2022-10-18T21:44:25.880Z,98141.13
2022-10-18T21:46:55.312Z,98140.47
2022-10-18T21:52:21.965Z,98129.34
2022-10-18T21:54:51.062Z,98113.88
2022-10-18T21:57:19.832Z,98118.19
2022-10-18T21:59:48.371Z,98107.84
2022-10-18T22:02:16.869Z,98120.25
2022-10-18T22:04:45.372Z,98110.91
2022-10-18T22:07:14.465Z,98108.53
2022-10-18T22:09:42.838Z,98098.28
2022-10-18T22:12:11.525Z,98096.66
2022-10-18T22:14:40.771Z,98098.50
2022-10-18T22:17:09.231Z,98094.34
2022-10-18T22:19:38.129Z,98096.50
2022-10-18T22:22:06.693Z,98095.91
2022-10-18T22:27:04.540Z,98078.97
2022-10-18T22:29:32.811Z,98078.28
2022-10-18T22:32:02.081Z,98077.84
2022-10-18T22:34:30.408Z,98074.19
2022-10-18T22:37:01.380Z,98067.44
2022-10-18T22:39:36.290Z,98074.22
2022-10-18T22:42:06.427Z,98061.94
2022-10-18T22:44:35.058Z,98063.03
2022-10-18T22:47:03.576Z,98056.81
2022-10-18T22:49:31.915Z,98052.47
2022-10-18T22:52:00.345Z,98050.53
2022-10-18T22:54:28.745Z,98051.19
2022-10-18T22:56:57.185Z,98052.88
2022-10-18T22:59:25.625Z,98052.84
2022-10-18T23:01:54.045Z,98060.25
2022-10-18T23:04:22.520Z,98058.03
2022-10-18T23:06:50.718Z,98059.56
2022-10-18T23:09:19.211Z,98056.75
2022-10-18T23:11:48.340Z,98053.84
2022-10-18T23:14:16.729Z,98053.72
2022-10-18T23:16:45.350Z,98049.63
2022-10-18T23:19:17.112Z,98048.53
2022-10-18T23:21:45.533Z,98050.03
2022-10-18T23:24:14.558Z,98039.00
2022-10-18T23:26:43.087Z,98046.16
2022-10-18T23:29:11.712Z,98029.53
2022-10-18T23:31:40.180Z,98033.28
2022-10-18T23:34:08.690Z,98029.63
2022-10-18T23:36:37.180Z,98028.94
2022-10-18T23:39:06.541Z,98024.69
2022-10-18T23:41:35.658Z,98019.28
2022-10-18T23:44:04.123Z,98016.44
2022-10-18T23:46:32.406Z,98015.16
2022-10-18T23:49:00.719Z,98006.16
2022-10-18T23:51:29.068Z,98007.56
2022-10-18T23:53:57.388Z,98013.03
2022-10-18T23:56:25.691Z,98002.22
2022-10-18T23:58:54.630Z,98003.25
